Hall Beach Airport
CYUX : rendu visible

Aérodrome :











RETROUVEZ-NOUS SUR...

 
LOGIN :

S'inscrire | Disclaimer

   EN    FR    IT 

 









Légende :    VFR   VFR Marginal   IFR   IFR Intensif   IFR Très Intensif
Visi : 
Plafond : 
>= 8 km
>= 3000ft
5 à 8 km
1000 à 3000 ft
1500m à 5 km
500 à 1000 ft
800 à 1500m
200 à 500 ft
< 800m
< 200 ft
Symboles :   Orages  Brouillard  Fortes neiges  Fortes précipitations  Vent > 20 kt






- Altitude de l'aérodrome : 27 ft
- Code IATA : YUX


CYUX - Hall Beach

DERNIER METAR :
  • 251143Z AUTO 36015KT 3SM -SN BKN024 OVC030 M06/M07 A2968 RMK SLP052

METARs EXPIRÉS :
  • 251120Z AUTO 36013KT 1 3/4SM -SN FEW017 BKN024 OVC032 M07/M07 A2968 RMK SLP052
  • 251100Z AUTO 35014KT 2SM -SN FEW018 OVC024 M06/M07 A2968 RMK SLP053
  • 251028Z AUTO 36014KT 2SM -SN BKN019 OVC024 M06/M07 A2968 RMK SLP053
  • 251001Z AUTO 36015KT 1 3/4SM -SN OVC017 M06/M08 A2968 RMK VIS VRB 1 1/4-2 1/2 SLP053
  • 250951Z AUTO 36014KT 2 1/2SM -SN BKN017 OVC022 M06/M07 A2969 RMK VIS VRB 1 3/4-3 SLP055
  • 250929Z AUTO 36014KT 5SM -SN BKN012 OVC021 M06/M07 A2969 RMK SLP055
  • 250924Z AUTO 36013KT 6SM -SN BKN012 OVC019 M06/M07 A2969 RMK SLP055
  • 250909Z AUTO 35014KT 3SM -SN OVC010 M07/M07 A2969 RMK SLP056
  • 250855Z AUTO 34014KT 4SM -SN OVC014 M07/M07 A2969 RMK SLP056

TAF TAF CYUX
Valide du 25 à 07h jusqu'au 25 à 19h UTC


250638Z 2507/2519 04010KT P6SM SCT007 OVC015
TEMPO 2507/2515 4SM -SN BR BKN007 OVC015
PROB30 2507/2515 2SM -FZDZ BR
FM251500 01012KT P6SM SCT009 BKN015 RMK FCST BASED ON AUTO OBS. NXT FCST BY 251300Z
FIR CZEG / Amérique du Nord



MET'MAP, la Météo Aéronautique d'un coup d'oeil ! - Copyright ORBIFLY Décembre 2007 - Disclaimer

ORBIFLY MET'MAP TEAM :

Programmation & Développement : Alexandra Zaïnal
Sur une idée originale de : Baudouin d'Aumeries
Assistance à la programmation : Marc-Olivier Méhu
Soutien technique & logistique : Manuel Goepfert

Contact : metmap@orbifly.com




SOURCES & CREDITS :

   NOAA       Earth
Advisory